createdAt,value
2022-12-10T06:39:47.504Z,100078.56
2022-12-10T06:42:15.991Z,100074.91
2022-12-10T06:44:44.289Z,100080.95
2022-12-10T06:47:13.230Z,100075.35
2022-12-10T06:49:41.996Z,100077.49
2022-12-10T06:52:10.530Z,100078.52
2022-12-10T06:54:39.421Z,100083.38
2022-12-10T06:57:08.002Z,100086.25
2022-12-10T06:59:36.588Z,100099.21
2022-12-10T07:02:05.429Z,100096.59
2022-12-10T07:04:34.062Z,100095.40
2022-12-10T07:07:08.037Z,100091.83
2022-12-10T07:09:39.387Z,100092.83
2022-12-10T07:12:07.807Z,100088.13
2022-12-10T07:14:36.104Z,100085.69
2022-12-10T07:17:06.713Z,100082.02
2022-12-10T07:19:34.989Z,100083.05
2022-12-10T07:22:03.370Z,100078.29
2022-12-10T07:24:32.415Z,100073.98
2022-12-10T07:27:00.846Z,100068.55
2022-12-10T07:29:30.557Z,100063.65
2022-12-10T07:31:59.346Z,100063.39
2022-12-10T07:34:27.784Z,100062.81
2022-12-10T07:36:56.244Z,100063.70
2022-12-10T07:39:24.895Z,100066.70
2022-12-10T07:41:53.787Z,100069.81
2022-12-10T07:44:24.114Z,100077.41
2022-12-10T07:46:54.177Z,100081.74
2022-12-10T07:49:22.611Z,100085.31
2022-12-10T07:51:51.333Z,100083.83
2022-12-10T07:54:20.095Z,100078.46
2022-12-10T07:56:48.781Z,100083.59
2022-12-10T07:59:17.161Z,100083.36
2022-12-10T08:01:45.841Z,100086.36
2022-12-10T08:04:14.425Z,100079.43
2022-12-10T08:06:42.744Z,100084.56
2022-12-10T08:09:12.220Z,100084.20
2022-12-10T08:11:40.455Z,100084.17
2022-12-10T08:14:08.663Z,100079.45
2022-12-10T08:16:37.307Z,100075.34
2022-12-10T08:19:06.857Z,100071.15
2022-12-10T08:21:35.336Z,100069.58
2022-12-10T08:24:04.129Z,100063.18
2022-12-10T08:26:33.591Z,100057.15
2022-12-10T08:29:02.440Z,100049.59
2022-12-10T08:31:35.786Z,100043.80
2022-12-10T08:34:12.398Z,100043.79
2022-12-10T08:36:41.081Z,100038.05
2022-12-10T08:39:11.520Z,100039.91
2022-12-10T08:41:39.885Z,100038.33
2022-12-10T08:44:08.572Z,100028.29
2022-12-10T08:46:36.954Z,100021.95
2022-12-10T08:49:06.158Z,100019.27
2022-12-10T08:51:34.636Z,100019.47
2022-12-10T08:54:03.938Z,100020.90
2022-12-10T08:56:33.030Z,100026.48
2022-12-10T08:59:01.512Z,100012.48
2022-12-10T09:01:30.041Z,100008.25
2022-12-10T09:03:58.683Z,100003.02
2022-12-10T09:06:27.118Z,99993.74
2022-12-10T09:08:55.720Z,99989.34
2022-12-10T09:11:25.736Z,99986.52
2022-12-10T09:13:54.455Z,99983.77
2022-12-10T09:16:29.189Z,99977.16
2022-12-10T09:18:58.180Z,99978.89
2022-12-10T09:21:26.761Z,99972.88
2022-12-10T09:23:55.141Z,99969.10
2022-12-10T09:26:23.933Z,99968.52
2022-12-10T09:28:52.515Z,99967.65
2022-12-10T09:31:21.395Z,99965.02
2022-12-10T09:33:53.680Z,99963.63
2022-12-10T09:36:22.878Z,99957.75
2022-12-10T09:38:53.156Z,99956.64
2022-12-10T09:41:33.956Z,99957.67
2022-12-10T09:44:18.534Z,99952.16
2022-12-10T09:46:52.136Z,99949.02
2022-12-10T09:49:33.120Z,99948.92
2022-12-10T09:52:03.812Z,99943.61
2022-12-10T09:54:39.395Z,99944.67
2022-12-10T09:57:08.495Z,99946.08
2022-12-10T09:59:45.474Z,99944.26
2022-12-10T10:02:16.916Z,99945.06
2022-12-10T10:04:45.817Z,99940.73
2022-12-10T10:07:28.741Z,99935.78
2022-12-10T10:10:08.533Z,99931.80
2022-12-10T10:12:39.164Z,99927.69
2022-12-10T10:15:13.750Z,99925.77
2022-12-10T10:17:46.752Z,99925.63
2022-12-10T10:20:15.624Z,99917.27
2022-12-10T10:22:44.618Z,99914.66
2022-12-10T10:25:17.613Z,99912.44
2022-12-10T10:27:46.181Z,99913.67
2022-12-10T10:30:19.575Z,99911.73
2022-12-10T10:32:52.755Z,99912.04
2022-12-10T10:35:25.872Z,99912.85
2022-12-10T10:37:59.372Z,99920.63
2022-12-10T10:40:33.303Z,99920.56
2022-12-10T10:43:02.377Z,99920.42
2022-12-10T10:45:35.807Z,99919.81
2022-12-10T10:48:06.432Z,99923.52
2022-12-10T10:50:55.269Z,99927.59
2022-12-10T10:53:24.832Z,99915.46
2022-12-10T10:55:55.056Z,99914.84
2022-12-10T10:58:24.680Z,99901.48
2022-12-10T11:00:57.229Z,99892.39
2022-12-10T11:03:26.409Z,99887.65
2022-12-10T11:05:55.421Z,99883.10
2022-12-10T11:08:25.889Z,99879.05
2022-12-10T11:11:04.464Z,99880.80
2022-12-10T11:13:34.771Z,99875.68
2022-12-10T11:16:18.278Z,99875.17
2022-12-10T11:18:56.706Z,99869.60
2022-12-10T11:21:26.313Z,99863.59
2022-12-10T11:23:56.128Z,99867.02
2022-12-10T11:26:57.585Z,99863.41
2022-12-10T11:29:35.383Z,99853.41
2022-12-10T11:32:39.193Z,99845.02
2022-12-10T11:35:13.008Z,99836.91
2022-12-10T11:37:41.589Z,99832.20
2022-12-10T11:40:16.049Z,99836.16
2022-12-10T11:42:56.884Z,99838.30
2022-12-10T11:45:38.215Z,99833.56
2022-12-10T11:48:22.005Z,99826.11
2022-12-10T11:50:53.524Z,99821.45
2022-12-10T11:53:24.817Z,99810.92
2022-12-10T11:55:53.705Z,99802.81
2022-12-10T11:58:45.323Z,99799.22
2022-12-10T12:01:27.732Z,99790.67
2022-12-10T12:04:14.853Z,99792.23
2022-12-10T12:07:02.074Z,99798.65
2022-12-10T12:09:49.296Z,99798.44
2022-12-10T12:12:35.699Z,99795.43
2022-12-10T12:15:25.380Z,99789.36
2022-12-10T12:17:58.677Z,99778.57
2022-12-10T12:20:31.971Z,99774.35
2022-12-10T12:23:15.606Z,99765.56
2022-12-10T12:25:48.083Z,99768.88
2022-12-10T12:28:31.007Z,99776.89
2022-12-10T12:31:03.346Z,99792.02
2022-12-10T12:33:43.947Z,99799.39
2022-12-10T12:36:42.023Z,99808.36
2022-12-10T12:39:26.012Z,99808.80
2022-12-10T12:42:02.911Z,99797.42
2022-12-10T12:44:51.398Z,99785.05
2022-12-10T12:47:37.907Z,99787.83
2022-12-10T12:50:12.837Z,99787.41
2022-12-10T12:52:44.526Z,99782.30
2022-12-10T12:55:18.610Z,99787.59
2022-12-10T12:57:50.778Z,99784.39
2022-12-10T13:00:20.264Z,99775.66
2022-12-10T13:02:48.699Z,99774.00
2022-12-10T13:05:23.688Z,99771.45
2022-12-10T13:08:11.216Z,99765.73
2022-12-10T13:11:00.201Z,99766.21
2022-12-10T13:13:39.019Z,99765.48
2022-12-10T13:16:26.610Z,99762.20
2022-12-10T13:19:15.319Z,99770.97
2022-12-10T13:22:11.855Z,99771.08
2022-12-10T13:24:40.537Z,99767.21
2022-12-10T13:27:11.709Z,99774.42
2022-12-10T13:30:00.649Z,99782.17
2022-12-10T13:32:32.819Z,99775.77
2022-12-10T13:35:10.713Z,99778.55
2022-12-10T13:38:05.549Z,99776.38
2022-12-10T13:40:53.043Z,99769.02
2022-12-10T13:43:59.316Z,99768.63
2022-12-10T13:46:31.242Z,99773.20
2022-12-10T13:49:01.602Z,99767.48
2022-12-10T13:51:48.926Z,99763.14
2022-12-10T13:54:36.250Z,99755.54
2022-12-10T13:57:19.887Z,99751.06
2022-12-10T14:00:13.222Z,99751.91
2022-12-10T14:02:58.684Z,99747.55
2022-12-10T14:05:27.526Z,99747.17
2022-12-10T14:07:57.610Z,99740.60
2022-12-10T14:10:29.716Z,99737.77
2022-12-10T14:12:59.283Z,99735.48
2022-12-10T14:15:28.237Z,99732.02
2022-12-10T14:18:18.374Z,99731.80
2022-12-10T14:20:48.629Z,99730.85
2022-12-10T14:23:36.961Z,99730.39
2022-12-10T14:26:11.041Z,99733.11
2022-12-10T14:28:40.544Z,99735.00
2022-12-10T14:31:13.564Z,99737.13
2022-12-10T14:33:42.271Z,99732.34
2022-12-10T14:36:16.929Z,99728.30
2022-12-10T14:38:47.180Z,99726.66
2022-12-10T14:41:18.471Z,99725.78
2022-12-10T14:43:47.361Z,99719.23
2022-12-10T14:46:18.458Z,99714.90
2022-12-10T14:48:48.016Z,99710.23
2022-12-10T14:51:18.033Z,99708.20
2022-12-10T14:53:47.543Z,99705.59
2022-12-10T14:56:28.413Z,99709.66
2022-12-10T14:58:57.272Z,99708.17
2022-12-10T15:01:29.270Z,99708.71
2022-12-10T15:04:00.030Z,99709.47
2022-12-10T15:06:28.997Z,99704.71
2022-12-10T15:08:58.653Z,99701.52
2022-12-10T15:11:28.698Z,99692.58
2022-12-10T15:14:00.996Z,99685.80
2022-12-10T15:16:31.489Z,99683.25
2022-12-10T15:19:21.022Z,99676.37
2022-12-10T15:21:50.100Z,99675.30
2022-12-10T15:24:20.633Z,99681.52
2022-12-10T15:26:51.530Z,99675.90
2022-12-10T15:29:27.500Z,99677.90
2022-12-10T15:31:58.524Z,99676.40
2022-12-10T15:34:28.998Z,99671.95
2022-12-10T15:37:02.257Z,99672.30
2022-12-10T15:39:38.558Z,99670.05
2022-12-10T15:42:07.964Z,99671.29
2022-12-10T15:44:41.525Z,99673.09
2022-12-10T15:47:26.397Z,99673.20
2022-12-10T15:49:56.795Z,99673.70
2022-12-10T15:52:25.493Z,99674.41
2022-12-10T15:54:54.680Z,99690.38
2022-12-10T15:57:31.078Z,99700.55
2022-12-10T16:00:00.916Z,99697.99
2022-12-10T16:02:41.406Z,99700.98
2022-12-10T16:05:27.079Z,99700.38
2022-12-10T16:07:56.552Z,99710.79
2022-12-10T16:10:25.983Z,99713.00
2022-12-10T16:13:05.117Z,99707.89
2022-12-10T16:15:46.686Z,99706.27
2022-12-10T16:18:15.185Z,99690.84
2022-12-10T16:20:43.564Z,99693.52
2022-12-10T16:23:12.356Z,99690.66
2022-12-10T16:25:45.357Z,99691.55
2022-12-10T16:28:15.890Z,99681.46
2022-12-10T16:30:47.917Z,99679.16
2022-12-10T16:33:19.213Z,99673.02
2022-12-10T16:35:47.895Z,99669.92
2022-12-10T16:38:16.371Z,99661.29
2022-12-10T16:40:45.658Z,99654.70
2022-12-10T16:43:16.698Z,99647.14
2022-12-10T16:45:45.787Z,99647.35
2022-12-10T16:48:14.786Z,99648.98
2022-12-10T16:50:44.192Z,99639.12
2022-12-10T16:53:37.151Z,99631.67
2022-12-10T16:56:06.552Z,99631.68
2022-12-10T16:58:35.134Z,99642.50
2022-12-10T17:01:03.647Z,99647.67
2022-12-10T17:03:32.814Z,99645.02
2022-12-10T17:06:03.362Z,99633.18
2022-12-10T17:08:32.004Z,99625.20
2022-12-10T17:11:19.356Z,99619.26
2022-12-10T17:13:48.555Z,99624.48
2022-12-10T17:16:20.265Z,99626.31
2022-12-10T17:18:49.779Z,99623.59
2022-12-10T17:21:18.300Z,99625.30
2022-12-10T17:23:46.896Z,99624.70
2022-12-10T17:26:35.849Z,99618.45
2022-12-10T17:29:27.168Z,99609.91
2022-12-10T17:31:56.115Z,99611.45
2022-12-10T17:34:24.951Z,99604.86
2022-12-10T17:36:53.331Z,99601.56
2022-12-10T17:39:23.291Z,99593.21
2022-12-10T17:41:52.443Z,99584.52
2022-12-10T17:44:23.038Z,99581.58
2022-12-10T17:46:51.734Z,99585.08
2022-12-10T17:49:20.455Z,99591.90
2022-12-10T17:51:48.933Z,99594.09
2022-12-10T17:54:17.516Z,99592.71
2022-12-10T17:56:45.898Z,99585.77
2022-12-10T17:59:15.423Z,99578.45
2022-12-10T18:01:48.430Z,99580.02
2022-12-10T18:04:17.387Z,99580.39
2022-12-10T18:06:46.441Z,99575.88
2022-12-10T18:09:14.762Z,99568.67
2022-12-10T18:11:44.768Z,99563.70
2022-12-10T18:14:15.708Z,99555.89
2022-12-10T18:16:44.619Z,99552.27
2022-12-10T18:19:16.681Z,99549.40
2022-12-10T18:21:47.004Z,99539.73
2022-12-10T18:24:19.065Z,99537.81
2022-12-10T18:26:47.570Z,99537.64
2022-12-10T18:29:16.036Z,99546.33
2022-12-10T18:31:45.329Z,99549.02
2022-12-10T18:34:15.251Z,99548.90
2022-12-10T18:36:45.264Z,99545.00
2022-12-10T18:39:24.213Z,99544.57
2022-12-10T18:41:53.648Z,99540.75
2022-12-10T18:44:24.531Z,99537.56
2022-12-10T18:46:53.901Z,99539.92
2022-12-10T18:49:23.547Z,99536.35
2022-12-10T18:51:52.129Z,99539.64
2022-12-10T18:54:20.718Z,99543.04
2022-12-10T18:57:09.633Z,99544.40
2022-12-10T18:59:37.952Z,99539.19
2022-12-10T19:02:07.128Z,99547.66
2022-12-10T19:04:35.633Z,99553.55
2022-12-10T19:07:04.729Z,99553.16
2022-12-10T19:09:36.393Z,99543.65
2022-12-10T19:12:04.976Z,99539.89
2022-12-10T19:14:33.459Z,99534.63
2022-12-10T19:17:02.761Z,99530.13
2022-12-10T19:19:31.340Z,99522.22
2022-12-10T19:21:59.820Z,99514.40
2022-12-10T19:24:28.408Z,99514.19
2022-12-10T19:26:56.990Z,99510.06
2022-12-10T19:29:25.879Z,99502.31
2022-12-10T19:31:54.365Z,99501.57
2022-12-10T19:34:22.844Z,99499.70
2022-12-10T19:36:51.482Z,99499.34
2022-12-10T19:39:22.067Z,99496.57
2022-12-10T19:41:50.850Z,99486.66
2022-12-10T19:44:19.543Z,99477.41
2022-12-10T19:46:48.642Z,99480.09
2022-12-10T19:49:17.628Z,99475.29
2022-12-10T19:51:46.519Z,99474.89
2022-12-10T19:54:15.619Z,99470.85
2022-12-10T19:56:44.511Z,99465.16
2022-12-10T19:59:15.448Z,99463.72
2022-12-10T20:01:44.755Z,99466.84
2022-12-10T20:04:13.621Z,99464.46
2022-12-10T20:06:43.637Z,99464.74
2022-12-10T20:09:27.706Z,99467.61
2022-12-10T20:11:56.903Z,99464.11
2022-12-10T20:14:25.543Z,99461.48
2022-12-10T20:16:54.172Z,99462.31
2022-12-10T20:19:23.644Z,99462.43
2022-12-10T20:21:52.476Z,99466.44
2022-12-10T20:24:20.951Z,99465.46
2022-12-10T20:26:50.030Z,99470.81
2022-12-10T20:29:23.444Z,99466.79
2022-12-10T20:31:53.436Z,99462.92
2022-12-10T20:34:22.868Z,99458.27
2022-12-10T20:36:52.168Z,99454.95
2022-12-10T20:39:22.767Z,99448.70
2022-12-10T20:41:52.817Z,99446.05
2022-12-10T20:44:22.121Z,99446.20
2022-12-10T20:46:51.392Z,99445.26
2022-12-10T20:49:21.223Z,99442.16
2022-12-10T20:51:49.873Z,99438.54
2022-12-10T20:54:18.613Z,99434.14
2022-12-10T20:56:47.296Z,99430.20
2022-12-10T20:59:16.392Z,99425.00
2022-12-10T21:01:44.827Z,99414.93
2022-12-10T21:04:13.560Z,99405.69
2022-12-10T21:06:43.993Z,99401.77
2022-12-10T21:09:13.599Z,99400.90
2022-12-10T21:11:42.179Z,99395.63
2022-12-10T21:14:43.976Z,99384.61
2022-12-10T21:17:00.811Z,99377.55
2022-12-10T21:19:29.747Z,99370.14
2022-12-10T21:21:58.327Z,99367.89
2022-12-10T21:24:27.085Z,99362.14
2022-12-10T21:26:55.496Z,99356.71
2022-12-10T21:29:25.514Z,99354.11
2022-12-10T21:31:54.406Z,99347.03
2022-12-10T21:34:22.685Z,99336.67
2022-12-10T21:36:50.962Z,99329.85
2022-12-10T21:39:24.752Z,99328.33
2022-12-10T21:42:12.503Z,99327.19
2022-12-10T21:44:41.496Z,99328.72
2022-12-10T21:47:09.874Z,99326.91
2022-12-10T21:49:38.256Z,99332.77
2022-12-10T21:52:07.049Z,99335.08
2022-12-10T21:54:35.421Z,99331.10
2022-12-10T21:57:03.871Z,99327.37
2022-12-10T21:59:32.592Z,99316.33
2022-12-10T22:02:01.030Z,99314.85
2022-12-10T22:04:29.657Z,99307.49
2022-12-10T22:06:58.516Z,99304.83
2022-12-10T22:09:26.830Z,99292.45
2022-12-10T22:11:55.208Z,99288.54
2022-12-10T22:14:24.125Z,99279.97
2022-12-10T22:16:52.477Z,99269.35
2022-12-10T22:19:20.851Z,99262.48
2022-12-10T22:21:49.442Z,99262.27
2022-12-10T22:24:17.864Z,99261.41
2022-12-10T22:26:46.160Z,99253.34
2022-12-10T22:29:14.855Z,99246.73
2022-12-10T22:31:43.318Z,99242.83
2022-12-10T22:34:11.646Z,99234.91
2022-12-10T22:36:40.231Z,99228.53
2022-12-10T22:39:08.784Z,99222.52
2022-12-10T22:41:37.709Z,99217.27
2022-12-10T22:44:06.465Z,99210.77
2022-12-10T22:46:35.019Z,99204.95
2022-12-10T22:49:03.599Z,99204.01
2022-12-10T22:51:32.454Z,99198.30
2022-12-10T22:54:01.287Z,99191.10
2022-12-10T22:56:30.283Z,99183.39
2022-12-10T22:58:59.442Z,99173.59
2022-12-10T23:01:28.079Z,99165.53
2022-12-10T23:03:56.344Z,99163.05
2022-12-10T23:06:26.726Z,99158.83
2022-12-10T23:08:55.105Z,99155.08
2022-12-10T23:11:23.493Z,99143.15
2022-12-10T23:13:52.789Z,99135.73
2022-12-10T23:16:21.453Z,99131.63
2022-12-10T23:18:50.489Z,99123.64
2022-12-10T23:21:19.562Z,99113.88
2022-12-10T23:23:48.147Z,99112.56
2022-12-10T23:26:16.732Z,99110.00
2022-12-10T23:28:46.036Z,99098.76
2022-12-10T23:31:14.842Z,99087.72
2022-12-10T23:33:43.200Z,99077.23
2022-12-10T23:36:12.227Z,99072.95
2022-12-10T23:38:40.985Z,99075.20
2022-12-10T23:41:10.898Z,99064.50
2022-12-10T23:43:39.793Z,99053.99
2022-12-10T23:46:08.840Z,99049.14
2022-12-10T23:48:37.266Z,99050.42
2022-12-10T23:51:06.334Z,99046.98
2022-12-10T23:53:35.056Z,99044.10
2022-12-10T23:56:13.259Z,99042.36
2022-12-10T23:58:41.844Z,99039.98
